Time;durP1;ratioP1;P1;durP2;ratioP2;P2;SDS_P1;SDS_P2;PMS_P1;PMS_P2;Temp;Humidity;BMP_temperature;BMP_pressure;BME280_temperature;BME280_humidity;BME280_pressure;Samples;Min_cycle;Max_cycle;Signal;HPM_P1;HPM_P2
2022/08/25 00:00:31;;;;;;;7.03;5.83;;;;;;;22.97;69.79;101449.34;5221309;28;20044;-71
2022/08/25 00:03:02;;;;;;;8.32;6.13;;;;;;;23.23;69.39;101445.28;5221166;28;20368;-71
2022/08/25 00:05:34;;;;;;;13.40;6.87;;;;;;;22.87;70.25;101444.53;5221332;28;20033;-71
2022/08/25 00:08:06;;;;;;;7.07;6.35;;;;;;;22.88;70.34;101440.94;5203375;28;20034;-72
2022/08/25 00:10:38;;;;;;;9.48;6.90;;;;;;;22.86;70.28;101440.16;5220994;28;20030;-71
2022/08/25 00:13:10;;;;;;;;;;;;;;;23.20;67.30;101440.13;5221309;28;20029;-72
2022/08/25 00:15:41;;;;;;;9.20;6.40;;;;;;;22.76;70.64;101438.94;5220994;28;20343;-72
2022/08/25 00:18:12;;;;;;;9.00;6.60;;;;;;;22.75;70.79;101442.53;5221031;28;20042;-71
2022/08/25 00:20:44;;;;;;;11.63;6.37;;;;;;;22.98;70.21;101437.78;5220907;28;20026;-72
2022/08/25 00:23:16;;;;;;;9.23;6.30;;;;;;;22.75;70.63;101442.53;5221444;28;20034;-71
2022/08/25 00:25:47;;;;;;;7.07;5.90;;;;;;;22.73;70.97;101439.97;5187669;28;20045;-72
2022/08/25 00:28:19;;;;;;;7.20;6.13;;;;;;;22.61;71.20;101442.41;5221246;28;20053;-71
2022/08/25 00:30:51;;;;;;;7.25;6.55;;;;;;;22.62;71.56;101439.69;5220792;28;20030;-71
2022/08/25 00:33:23;;;;;;;9.07;6.37;;;;;;;22.62;71.23;101441.47;5221169;28;20034;-72
2022/08/25 00:35:55;;;;;;;7.75;5.93;;;;;;;22.35;72.12;101436.69;5220164;28;20041;-71
2022/08/25 00:38:26;;;;;;;7.55;6.35;;;;;;;22.58;71.80;101454.06;5202584;28;20510;-71
2022/08/25 00:41:07;;;;;;;7.50;5.20;;;;;;;22.51;71.59;101442.91;5219845;28;20034;-72
2022/08/25 00:43:41;;;;;;;8.50;6.45;;;;;;;22.39;72.09;101446.19;5220192;28;20037;-71
2022/08/25 00:46:17;;;;;;;8.68;6.15;;;;;;;22.18;72.78;101448.13;5220147;28;20041;-71
2022/08/25 00:49:01;;;;;;;6.53;5.82;;;;;;;22.46;72.04;101439.63;5220099;28;20041;-71
2022/08/25 00:51:39;;;;;;;6.80;6.10;;;;;;;22.29;72.45;101440.50;5220377;28;20030;-71
2022/08/25 00:54:16;;;;;;;9.23;6.47;;;;;;;22.09;73.19;101438.84;5220926;28;20113;-71
2022/08/25 00:56:50;;;;;;;8.30;5.95;;;;;;;22.24;72.62;101439.00;5220627;28;20033;-71
2022/08/25 00:59:25;;;;;;;9.63;5.82;;;;;;;21.99;73.15;101438.44;5219957;28;20029;-71
2022/08/25 01:01:58;;;;;;;8.82;6.03;;;;;;;22.10;73.34;101440.53;5220172;28;20475;-71
2022/08/25 01:04:29;;;;;;;7.47;6.20;;;;;;;22.24;72.70;101436.34;5220615;28;20042;-72
2022/08/25 01:07:01;;;;;;;7.77;6.30;;;;;;;22.06;73.02;101443.41;5220809;28;20034;-71
2022/08/25 01:09:34;;;;;;;9.52;6.97;;;;;;;22.00;72.95;101441.94;5220280;28;20054;-71
2022/08/25 01:12:05;;;;;;;9.15;6.88;;;;;;;22.07;72.99;101440.69;5224195;28;20037;-72
2022/08/25 01:14:37;;;;;;;9.88;7.20;;;;;;;21.76;73.61;101431.63;5224290;28;20026;-71
2022/08/25 01:17:09;;;;;;;8.18;6.82;;;;;;;21.92;73.26;101431.72;5224489;28;20042;-71
2022/08/25 01:19:40;;;;;;;9.18;6.90;;;;;;;21.71;73.86;101438.94;5224429;28;20120;-71
2022/08/25 01:22:12;;;;;;;10.40;7.22;;;;;;;21.73;73.82;101437.06;5224505;28;20109;-71
2022/08/25 01:24:52;;;;;;;9.73;6.60;;;;;;;21.83;73.57;101437.47;5223864;28;20029;-71
2022/08/25 01:27:23;;;;;;;7.47;6.78;;;;;;;21.85;73.32;101440.94;5224334;28;20271;-71
2022/08/25 01:29:56;;;;;;;9.50;6.90;;;;;;;21.81;73.26;101440.19;5224251;28;20479;-71
2022/08/25 01:32:28;;;;;;;10.77;6.97;;;;;;;21.67;73.63;101432.09;5224630;28;20352;-70
2022/08/25 01:34:59;;;;;;;7.70;6.43;;;;;;;21.60;73.83;101435.97;5224588;28;20037;-71
2022/08/25 01:37:33;;;;;;;7.82;7.13;;;;;;;21.38;74.54;101436.97;5206783;28;20041;-70
2022/08/25 01:40:06;;;;;;;11.30;7.03;;;;;;;21.45;74.27;101432.25;5224083;28;20060;-70
2022/08/25 01:42:55;;;;;;;8.30;6.65;;;;;;;21.48;73.89;101426.81;5223976;28;20058;-71
2022/08/25 01:45:27;;;;;;;7.75;6.95;;;;;;;21.05;74.80;101432.31;5224188;28;20080;-70
2022/08/25 01:47:59;;;;;;;9.48;6.70;;;;;;;21.31;74.34;101436.38;5224119;28;20029;-71
2022/08/25 01:50:30;;;;;;;7.33;5.97;;;;;;;21.44;73.55;101435.81;5223675;28;20123;-71
2022/08/25 01:53:25;;;;;;;8.37;6.43;;;;;;;21.34;74.12;101434.53;5224893;28;20041;-71
2022/08/25 01:56:04;;;;;;;10.32;6.30;;;;;;;21.10;74.69;101438.25;5206914;28;20030;-71
2022/08/25 01:58:40;;;;;;;8.18;6.60;;;;;;;21.25;73.97;101438.47;5224013;28;20025;-71
2022/08/25 02:01:16;;;;;;;7.82;6.70;;;;;;;20.92;75.31;101444.44;5224565;28;20037;-71
2022/08/25 02:03:52;;;;;;;7.97;6.35;;;;;;;20.71;75.79;101431.22;5224005;28;20101;-71
2022/08/25 02:06:27;;;;;;;10.35;7.25;;;;;;;20.93;75.17;101441.72;5223973;28;20033;-71
2022/08/25 02:09:09;;;;;;;11.13;6.32;;;;;;;20.82;75.42;101432.50;5223848;28;20494;-72
2022/08/25 02:11:45;;;;;;;7.55;6.35;;;;;;;20.84;75.20;101433.31;5223507;28;20048;-71
2022/08/25 02:14:17;;;;;;;8.90;6.53;;;;;;;20.86;74.90;101434.09;5223807;28;20034;-71
2022/08/25 02:16:51;;;;;;;9.75;6.72;;;;;;;20.59;75.96;101437.03;5205974;28;20034;-71
2022/08/25 02:19:24;;;;;;;8.05;6.32;;;;;;;20.63;75.24;101432.47;5223671;28;20514;-72
2022/08/25 02:21:57;;;;;;;9.05;7.00;;;;;;;20.35;76.34;101428.38;5221962;28;20396;-71
2022/08/25 02:24:29;;;;;;;12.07;6.82;;;;;;;20.67;75.78;101431.41;5223412;28;20030;-72
2022/08/25 02:27:02;;;;;;;7.87;6.60;;;;;;;20.66;75.81;101424.44;5223266;28;20098;-71
2022/08/25 02:29:34;;;;;;;8.52;6.60;;;;;;;20.58;75.88;101422.94;5223000;28;20026;-71
2022/08/25 02:32:05;;;;;;;10.17;6.93;;;;;;;20.37;76.11;101427.38;5223146;28;20026;-71
2022/08/25 02:34:39;;;;;;;9.52;6.65;;;;;;;20.57;75.97;101425.66;5223309;28;20107;-71
2022/08/25 02:37:11;;;;;;;8.05;6.40;;;;;;;20.43;75.47;101420.09;5222807;28;20045;-71
2022/08/25 02:39:43;;;;;;;10.75;6.85;;;;;;;20.54;75.44;101425.78;5223061;28;20038;-70
2022/08/25 02:42:14;;;;;;;13.33;7.00;;;;;;;20.58;74.80;101424.72;5222853;28;20089;-70
2022/08/25 02:44:46;;;;;;;7.53;6.60;;;;;;;20.49;75.14;101427.78;5222751;28;20404;-70
2022/08/25 02:47:18;;;;;;;;;;;;;;;20.64;73.48;101428.91;5222922;28;20038;-70
2022/08/25 02:49:49;;;;;;;9.20;6.63;;;;;;;20.39;74.88;101422.88;5222688;28;19917;-70
2022/08/25 02:52:21;;;;;;;10.97;6.67;;;;;;;20.33;74.34;101423.13;5222769;28;20365;-70
2022/08/25 02:54:52;;;;;;;8.00;7.03;;;;;;;20.28;74.03;101413.69;5222535;28;20371;-70
2022/08/25 02:57:24;;;;;;;9.27;6.45;;;;;;;20.22;74.33;101412.16;5222388;28;20036;-70
2022/08/25 02:59:56;;;;;;;9.43;6.90;;;;;;;20.28;74.49;101413.69;5222345;28;20049;-70
2022/08/25 03:02:28;;;;;;;9.43;6.97;;;;;;;20.26;73.28;101410.25;5222628;28;20053;-69
2022/08/25 03:04:59;;;;;;;9.30;6.70;;;;;;;20.25;74.23;101419.97;5204634;28;20065;-69
2022/08/25 03:07:31;;;;;;;7.47;6.43;;;;;;;20.09;73.22;101416.28;5223878;28;20471;-69
2022/08/25 03:10:12;;;;;;;18.67;6.90;;;;;;;20.19;73.78;101415.81;5225218;28;20030;-69
2022/08/25 03:12:44;;;;;;;9.40;7.18;;;;;;;20.30;73.65;101404.78;5224270;28;20043;-70
2022/08/25 03:15:16;;;;;;;9.48;6.63;;;;;;;20.37;73.81;101403.56;5205102;28;20038;-68
2022/08/25 03:17:48;;;;;;;12.05;6.97;;;;;;;20.21;72.47;101399.88;5204688;28;20096;-70
2022/08/25 03:20:21;;;;;;;10.53;7.37;;;;;;;20.16;73.76;101397.41;5204536;28;20084;-70
2022/08/25 03:22:53;;;;;;;9.25;6.53;;;;;;;20.26;73.50;101394.38;5222099;28;20116;-70
2022/08/25 03:28:14;;;;;;;8.10;6.57;;;;;;;20.26;72.94;101387.28;5222462;28;20125;-70
2022/08/25 03:30:45;;;;;;;11.23;6.57;;;;;;;20.15;71.91;101390.41;5221609;28;20113;-70
2022/08/25 03:33:16;;;;;;;11.17;6.50;;;;;;;20.10;72.21;101391.53;5221791;28;20463;-70
2022/08/25 03:35:48;;;;;;;10.90;6.70;;;;;;;20.27;71.65;101388.13;5222380;28;20128;-70
2022/08/25 03:38:21;;;;;;;11.67;6.50;;;;;;;20.16;71.42;101389.47;5222530;28;20109;-70
2022/08/25 03:40:53;;;;;;;8.88;6.95;;;;;;;20.14;71.17;101387.81;5221479;28;20038;-70
2022/08/25 03:43:24;;;;;;;12.80;6.80;;;;;;;20.15;71.22;101382.44;5221516;28;20088;-69
2022/08/25 03:45:56;;;;;;;9.13;6.93;;;;;;;20.13;69.43;101386.97;5221710;28;20076;-70
2022/08/25 03:48:28;;;;;;;11.13;6.93;;;;;;;20.08;71.43;101388.94;5204023;28;20069;-70
2022/08/25 03:50:59;;;;;;;10.75;7.38;;;;;;;20.15;69.67;101379.81;5203794;28;20054;-69
2022/08/25 03:53:31;;;;;;;12.50;7.90;;;;;;;20.15;69.44;101385.09;5221870;28;20092;-69
2022/08/25 03:56:02;;;;;;;12.23;7.67;;;;;;;20.08;69.76;101377.50;5221700;28;20509;-70
2022/08/25 03:58:33;;;;;;;11.57;7.13;;;;;;;20.15;69.99;101381.59;5221563;28;20152;-70
2022/08/25 04:01:05;;;;;;;10.93;7.90;;;;;;;20.08;69.86;101377.50;5221193;28;20030;-69
2022/08/25 04:03:37;;;;;;;11.20;8.40;;;;;;;20.10;69.07;101367.72;5221049;28;20034;-69
2022/08/25 04:06:08;;;;;;;9.50;7.23;;;;;;;20.12;68.78;101363.22;5221677;28;20419;-70
2022/08/25 04:08:40;;;;;;;13.80;7.55;;;;;;;19.95;69.13;101363.94;5221295;28;20379;-69
2022/08/25 04:11:14;;;;;;;15.47;7.80;;;;;;;20.08;69.16;101361.63;5221567;28;20037;-69
2022/08/25 04:13:47;;;;;;;12.68;7.88;;;;;;;20.04;68.05;101371.47;5220906;28;20068;-70
2022/08/25 04:16:24;;;;;;;11.63;7.85;;;;;;;20.02;68.49;101373.34;5221194;28;20134;-69
2022/08/25 04:18:57;;;;;;;10.00;7.20;;;;;;;19.99;67.73;101379.59;5221478;28;20080;-70
2022/08/25 04:21:29;;;;;;;12.68;7.68;;;;;;;20.14;68.36;101377.22;5221384;28;20030;-70
2022/08/25 04:24:00;;;;;;;10.98;7.15;;;;;;;20.00;67.70;101380.47;5221423;28;20030;-70
2022/08/25 04:26:35;;;;;;;9.63;6.73;;;;;;;20.00;68.73;101378.69;5221041;28;20034;-69
2022/08/25 04:29:08;;;;;;;11.27;6.72;;;;;;;20.01;68.35;101375.13;5220825;28;20022;-69
2022/08/25 04:31:42;;;;;;;10.65;7.20;;;;;;;20.02;68.42;101368.88;5220815;28;20034;-69
2022/08/25 04:34:15;;;;;;;10.98;7.32;;;;;;;19.92;67.88;101372.88;5220548;28;20026;-70
2022/08/25 04:36:46;;;;;;;12.02;6.97;;;;;;;19.95;68.06;101358.66;5220985;28;20089;-70
2022/08/25 04:39:20;;;;;;;18.50;8.13;;;;;;;19.73;67.68;101354.22;5220686;28;20464;-70
2022/08/25 04:41:51;;;;;;;11.90;6.63;;;;;;;19.72;68.97;101352.50;5221276;28;20036;-70
2022/08/25 04:44:22;;;;;;;9.17;6.53;;;;;;;19.89;68.39;101350.97;5220231;28;20033;-70
2022/08/25 04:46:54;;;;;;;13.20;6.40;;;;;;;19.85;68.02;101344.94;5220497;28;20080;-69
2022/08/25 04:49:25;;;;;;;11.97;5.80;;;;;;;19.80;67.56;101354.84;5220712;28;20491;-70
2022/08/25 04:51:57;;;;;;;16.92;6.15;;;;;;;19.84;67.52;101353.81;5220750;28;20054;-70
2022/08/25 04:54:28;;;;;;;11.47;5.70;;;;;;;19.67;68.00;101344.78;5220679;28;20022;-70
2022/08/25 04:57:00;;;;;;;9.30;5.93;;;;;;;19.64;67.33;101350.19;5220824;28;20038;-70
2022/08/25 04:59:31;;;;;;;11.70;5.27;;;;;;;19.84;67.28;101349.38;5222001;28;20085;-70
2022/08/25 05:02:04;;;;;;;9.73;5.67;;;;;;;19.88;66.73;101354.53;5220447;28;20101;-70
2022/08/25 05:04:36;;;;;;;8.48;6.03;;;;;;;19.81;66.82;101351.31;5202894;28;20056;-70
2022/08/25 05:07:08;;;;;;;7.50;4.90;;;;;;;19.81;65.20;101354.78;5203148;28;20029;-71
2022/08/25 05:09:39;;;;;;;11.80;5.83;;;;;;;19.73;65.89;101362.16;5220528;28;20033;-70
2022/08/25 05:12:11;;;;;;;14.63;5.27;;;;;;;19.86;66.13;101367.84;5220280;28;20472;-70
2022/08/25 05:14:43;;;;;;;7.47;4.77;;;;;;;19.93;67.09;101369.31;5220866;28;20646;-70
2022/08/25 05:17:14;;;;;;;9.83;5.67;;;;;;;19.90;65.69;101363.25;5220446;28;20091;-70
2022/08/25 05:19:45;;;;;;;8.13;4.70;;;;;;;19.86;65.75;101359.91;5220479;28;20060;-70
2022/08/25 05:22:17;;;;;;;11.53;4.77;;;;;;;19.90;67.09;101373.84;5220285;28;20762;-70
2022/08/25 05:24:49;;;;;;;12.30;5.47;;;;;;;19.94;67.21;101376.31;5220230;28;20050;-70
2022/08/25 05:27:21;;;;;;;9.18;4.85;;;;;;;19.98;66.25;101377.91;5203412;28;20030;-70
2022/08/25 05:29:52;;;;;;;8.30;4.50;;;;;;;20.08;65.04;101382.81;5220345;28;20041;-70
2022/08/25 05:32:24;;;;;;;8.87;4.67;;;;;;;20.14;66.88;101383.41;5220608;28;20064;-70
2022/08/25 05:34:55;;;;;;;7.63;4.30;;;;;;;20.25;66.86;101384.72;5202593;28;20062;-70
2022/08/25 05:37:26;;;;;;;7.40;3.80;;;;;;;20.32;65.00;101386.16;5202816;28;20038;-70
2022/08/25 05:39:58;;;;;;;9.00;4.67;;;;;;;20.37;63.95;101382.38;5220375;28;20030;-70
2022/08/25 05:42:29;;;;;;;11.17;4.63;;;;;;;20.43;65.62;101380.38;5202866;28;20092;-70
2022/08/25 05:45:01;;;;;;;9.73;4.73;;;;;;;20.38;65.81;101388.53;5220519;28;20030;-70
2022/08/25 05:47:33;;;;;;;9.57;3.93;;;;;;;20.49;64.79;101388.06;5220716;28;20030;-70
2022/08/25 05:50:05;;;;;;;8.32;4.38;;;;;;;20.47;64.52;101393.41;5220187;28;20049;-70
2022/08/25 05:52:37;;;;;;;9.70;4.22;;;;;;;20.55;64.79;101385.97;5202517;28;20514;-70
2022/08/25 05:55:09;;;;;;;14.13;4.88;;;;;;;20.45;64.46;101395.28;5202531;28;20029;-70
2022/08/25 05:57:41;;;;;;;9.93;4.40;;;;;;;20.53;63.48;101394.94;5223017;28;20053;-70
2022/08/25 06:00:13;;;;;;;10.63;4.77;;;;;;;20.64;65.29;101398.00;5224418;28;20038;-70
2022/08/25 06:02:47;;;;;;;9.63;4.03;;;;;;;20.71;64.83;101396.78;5223815;28;20056;-72
2022/08/25 06:05:20;;;;;;;9.57;4.40;;;;;;;20.71;61.88;101402.06;5223679;28;20057;-70
2022/08/25 06:07:52;;;;;;;12.18;4.45;;;;;;;20.81;61.54;101399.88;5206260;28;20037;-70
2022/08/25 06:10:24;;;;;;;7.13;3.90;;;;;;;20.91;62.85;101403.84;5224187;28;20037;-70
2022/08/25 06:12:55;;;;;;;13.93;5.10;;;;;;;20.88;61.56;101396.03;5223393;28;20041;-70
2022/08/25 06:15:27;;;;;;;11.87;4.87;;;;;;;20.99;63.29;101407.91;5205976;28;20415;-70
2022/08/25 06:18:00;;;;;;;19.38;5.03;;;;;;;21.08;61.87;101399.53;5224223;28;20048;-70
2022/08/25 06:20:32;;;;;;;13.07;4.35;;;;;;;21.13;61.10;101398.34;5223431;28;20096;-70
2022/08/25 06:23:03;;;;;;;13.68;4.57;;;;;;;21.17;60.36;101390.25;5223395;28;20026;-70
2022/08/25 06:25:35;;;;;;;12.73;5.27;;;;;;;21.23;61.13;101398.78;5223360;28;20458;-70
2022/08/25 06:28:06;;;;;;;14.10;4.67;;;;;;;21.35;58.78;101399.13;5223538;28;20026;-70
2022/08/25 06:30:38;;;;;;;21.13;4.47;;;;;;;21.42;58.09;101393.44;5223324;28;20026;-70
2022/08/25 06:33:10;;;;;;;7.72;4.28;;;;;;;21.45;59.03;101397.75;5205959;28;20041;-70
2022/08/25 06:35:43;;;;;;;11.65;5.20;;;;;;;21.43;59.11;101397.84;5223236;28;20068;-70
2022/08/25 06:38:14;;;;;;;9.65;4.72;;;;;;;21.58;59.27;101398.91;5223228;28;20026;-70
2022/08/25 06:40:46;;;;;;;6.17;3.77;;;;;;;21.65;60.03;101397.69;5222743;28;20034;-70
2022/08/25 06:43:19;;;;;;;;;;;;;;;21.83;59.50;101395.00;5223360;28;20475;-70
2022/08/25 06:45:50;;;;;;;12.85;4.45;;;;;;;21.78;57.78;101403.22;5205229;28;20366;-70
2022/08/25 06:48:22;;;;;;;7.47;4.20;;;;;;;21.85;57.57;101404.63;5222877;28;20073;-70
2022/08/25 06:50:54;;;;;;;11.85;4.50;;;;;;;21.90;58.04;101400.91;5205365;28;20058;-70
2022/08/25 06:53:25;;;;;;;10.90;4.47;;;;;;;21.99;56.70;101395.09;5222865;28;20476;-70
2022/08/25 06:55:57;;;;;;;11.40;4.67;;;;;;;22.08;55.81;101399.94;5223094;28;20034;-70
2022/08/25 06:58:29;;;;;;;8.50;4.55;;;;;;;22.14;58.17;101399.63;5223172;28;20208;-70
2022/08/25 07:01:13;;;;;;;8.97;4.23;;;;;;;22.22;56.69;101394.78;5205195;28;20116;-69
2022/08/25 07:03:45;;;;;;;8.23;4.20;;;;;;;22.31;56.01;101396.09;5222649;28;20375;-70
2022/08/25 07:06:17;;;;;;;9.57;3.80;;;;;;;22.39;53.95;101399.25;5205219;28;20038;-70
2022/08/25 07:08:48;;;;;;;;;;;;;;;22.58;55.69;101392.94;5222034;28;20554;-70
2022/08/25 07:11:20;;;;;;;9.27;4.23;;;;;;;22.57;55.08;101384.13;5205162;28;20003;-70
2022/08/25 07:13:51;;;;;;;11.55;4.28;;;;;;;22.67;54.37;101391.56;5222632;28;20034;-70
2022/08/25 07:16:23;;;;;;;9.33;4.53;;;;;;;22.67;54.56;101387.13;5222431;28;20116;-70
2022/08/25 07:18:55;;;;;;;10.53;4.40;;;;;;;22.70;55.33;101383.44;5222691;28;20045;-70
2022/08/25 07:21:29;;;;;;;8.25;4.07;;;;;;;22.75;54.34;101384.06;5222328;28;20022;-70
2022/08/25 07:24:04;;;;;;;11.20;3.78;;;;;;;22.79;55.54;101385.59;5222319;28;20042;-70
2022/08/25 07:26:38;;;;;;;10.27;3.05;;;;;;;22.90;53.93;101385.88;5221967;28;20042;-70
2022/08/25 07:29:16;;;;;;;10.73;4.35;;;;;;;23.07;52.93;101384.06;5221903;28;20095;-70
2022/08/25 07:31:47;;;;;;;9.18;3.80;;;;;;;23.18;54.23;101389.69;5222112;28;20036;-70
2022/08/25 07:37:09;;;;;;;17.38;4.03;;;;;;;23.45;52.95;101379.25;5193852;28;20042;-70
2022/08/25 07:39:41;;;;;;;12.17;3.90;;;;;;;23.55;52.00;101373.41;5222705;28;20037;-70
2022/08/25 07:42:12;;;;;;;12.85;3.97;;;;;;;23.66;53.13;101381.63;5222281;28;20058;-70
2022/08/25 07:44:44;;;;;;;8.30;3.73;;;;;;;23.77;52.26;101376.53;5221770;28;20084;-70
2022/08/25 07:47:15;;;;;;;9.57;3.90;;;;;;;23.90;51.38;101379.34;5221778;28;20029;-71
2022/08/25 07:49:46;;;;;;;9.30;3.73;;;;;;;24.07;51.48;101381.03;5221980;28;20061;-71
2022/08/25 07:52:18;;;;;;;7.70;3.50;;;;;;;24.12;51.50;101376.28;5221973;28;20390;-70
2022/08/25 07:54:52;;;;;;;11.50;3.65;;;;;;;24.30;51.24;101371.63;5221540;28;20062;-71
2022/08/25 07:57:25;;;;;;;6.63;3.63;;;;;;;24.45;51.70;101368.97;5221668;28;20030;-71
2022/08/25 07:59:57;;;;;;;5.55;3.13;;;;;;;24.59;50.37;101366.31;5221591;28;20116;-70
2022/08/25 08:02:29;;;;;;;5.75;3.38;;;;;;;24.76;51.73;101373.25;5221599;28;20446;-70
2022/08/25 08:05:00;;;;;;;7.27;3.73;;;;;;;24.79;49.77;101378.38;5221482;28;20033;-70
2022/08/25 08:07:31;;;;;;;6.87;3.40;;;;;;;25.09;49.93;101372.06;5221879;28;20042;-71
2022/08/25 08:10:05;;;;;;;8.02;3.40;;;;;;;25.14;47.92;101366.44;5221623;28;20040;-70
2022/08/25 08:12:36;;;;;;;7.82;3.50;;;;;;;25.30;49.41;101369.81;5221679;28;20143;-70
2022/08/25 08:15:08;;;;;;;9.07;3.47;;;;;;;25.28;48.72;101374.41;5221575;28;20026;-70
2022/08/25 08:17:40;;;;;;;7.05;2.97;;;;;;;25.32;48.28;101370.56;5221558;28;20025;-69
2022/08/25 08:20:12;;;;;;;7.85;3.50;;;;;;;25.38;50.48;101362.16;5221190;28;20045;-70
2022/08/25 08:22:44;;;;;;;8.55;3.55;;;;;;;25.55;50.28;101361.06;5221263;28;20543;-70
2022/08/25 08:25:16;;;;;;;8.07;3.57;;;;;;;25.52;48.41;101363.94;5220933;28;20104;-70
2022/08/25 08:27:47;;;;;;;8.93;3.35;;;;;;;25.72;46.73;101367.91;5220799;28;20409;-69
2022/08/25 08:30:20;;;;;;;6.05;2.72;;;;;;;25.80;48.51;101365.56;5221376;28;20479;-70
2022/08/25 08:32:52;;;;;;;10.32;3.65;;;;;;;25.79;47.72;101371.91;5221376;28;20034;-70
2022/08/25 08:35:23;;;;;;;10.90;3.42;;;;;;;25.99;48.17;101361.69;5220903;28;20036;-70
2022/08/25 08:37:55;;;;;;;8.13;3.65;;;;;;;26.08;47.44;101366.38;5220612;28;20060;-70
2022/08/25 08:40:28;;;;;;;8.80;3.70;;;;;;;26.10;46.67;101363.59;5220893;28;20034;-70
2022/08/25 08:43:08;;;;;;;7.60;3.03;;;;;;;26.15;47.01;101367.69;5220805;28;20030;-71
2022/08/25 08:45:50;;;;;;;15.07;3.70;;;;;;;26.44;47.03;101361.25;5221599;28;20030;-70
2022/08/25 08:48:40;;;;;;;10.18;3.17;;;;;;;26.54;45.08;101362.31;5220965;28;20076;-69
2022/08/25 08:51:24;;;;;;;10.73;4.03;;;;;;;26.66;45.11;101360.59;5200349;28;20129;-69
2022/08/25 08:54:05;;;;;;;9.82;3.00;;;;;;;26.59;44.32;101367.34;5200538;28;20453;-70
2022/08/25 08:56:40;;;;;;;5.88;2.50;;;;;;;26.75;42.99;101357.25;5198818;28;20122;-69
2022/08/25 08:59:24;;;;;;;9.65;3.63;;;;;;;26.87;45.08;101358.19;5200219;28;20185;-70
2022/08/25 09:02:01;;;;;;;10.55;3.00;;;;;;;27.06;43.29;101360.38;5200199;28;20168;-70
2022/08/25 09:04:58;;;;;;;8.05;3.50;;;;;;;27.26;44.59;101354.41;5198821;28;20077;-70
2022/08/25 09:07:43;;;;;;;10.80;3.15;;;;;;;27.46;45.48;101349.41;5200028;28;20064;-70
2022/08/25 09:10:16;;;;;;;9.32;3.13;;;;;;;27.47;45.06;101370.72;5199850;28;20026;-71
2022/08/25 09:13:26;;;;;;;8.88;3.10;;;;;;;27.67;44.09;101363.00;5200163;28;20030;-71
2022/08/25 09:19:21;;;;;;;9.07;3.15;;;;;;;27.99;43.42;101359.69;5200255;28;20042;-70
2022/08/25 09:22:13;;;;;;;7.80;3.22;;;;;;;28.18;42.93;101359.97;5199638;28;20092;-70
2022/08/25 09:25:19;;;;;;;8.35;3.60;;;;;;;28.60;41.33;101354.03;5200613;28;20098;-70
2022/08/25 09:28:12;;;;;;;9.90;2.80;;;;;;;28.76;41.36;101359.00;5200313;28;20348;-70
2022/08/25 09:31:04;;;;;;;5.90;3.25;;;;;;;28.95;41.21;101360.19;5199878;28;20038;-70
2022/08/25 09:33:36;;;;;;;8.45;3.38;;;;;;;29.30;36.41;101356.47;5203790;28;20033;-70
2022/08/25 09:36:07;;;;;;;;;;;;;;;29.52;40.37;101359.03;5204259;28;20495;-71
2022/08/25 09:38:39;;;;;;;6.57;2.88;;;;;;;29.50;37.72;101352.13;5203816;28;19913;-70
2022/08/25 09:41:14;;;;;;;;;;;;;;;29.95;39.48;101355.41;5203858;28;20041;-71
2022/08/25 09:43:52;;;;;;;5.85;2.75;;;;;;;29.99;37.02;101346.13;5203399;28;19949;-71
2022/08/25 09:46:27;;;;;;;6.30;2.97;;;;;;;30.20;40.49;101345.22;5204251;28;20022;-71
2022/08/25 09:49:10;;;;;;;11.25;3.95;;;;;;;30.60;37.13;101351.63;5206373;28;20407;-71
2022/08/25 09:51:43;;;;;;;3.95;2.28;;;;;;;30.80;39.68;101341.75;5224780;28;20470;-71
2022/08/25 09:54:14;;;;;;;7.13;3.10;;;;;;;30.83;35.05;101341.50;5223799;28;20125;-71
2022/08/25 09:56:55;;;;;;;7.75;2.38;;;;;;;31.09;33.80;101331.09;5223978;28;20108;-71
2022/08/25 09:59:29;;;;;;;6.13;2.10;;;;;;;31.19;36.39;101340.00;5223887;28;20109;-71
2022/08/25 10:02:05;;;;;;;9.38;2.65;;;;;;;31.35;33.23;101327.81;5223944;28;20030;-71
2022/08/25 10:04:38;;;;;;;6.63;2.85;;;;;;;31.51;38.83;101313.75;5223702;28;20038;-71
2022/08/25 10:07:34;;;;;;;6.55;2.67;;;;;;;31.69;34.73;101309.38;5223493;28;20586;-71
2022/08/25 10:10:17;;;;;;;4.57;2.10;;;;;;;31.98;31.76;101303.91;5224264;28;20034;-71
2022/08/25 10:12:49;;;;;;;7.95;2.55;;;;;;;31.95;32.66;101308.75;5206250;28;20387;-71
2022/08/25 10:15:33;;;;;;;9.00;3.03;;;;;;;32.16;32.06;101308.56;5205940;28;20038;-70
2022/08/25 10:18:25;;;;;;;9.55;2.55;;;;;;;32.33;34.75;101307.75;5223677;28;20038;-71
2022/08/25 10:21:05;;;;;;;8.02;2.38;;;;;;;32.34;32.55;101300.50;5224117;28;20026;-71
2022/08/25 10:23:47;;;;;;;5.43;2.70;;;;;;;32.61;36.62;101309.59;5223443;28;20056;-71
2022/08/25 10:26:46;;;;;;;7.07;3.40;;;;;;;32.80;33.63;101298.72;5223717;28;20030;-71
2022/08/25 10:29:46;;;;;;;7.30;2.72;;;;;;;32.76;34.26;101291.91;5223251;28;20026;-70
2022/08/25 10:32:40;;;;;;;5.88;2.50;;;;;;;32.57;30.58;101286.59;5223059;28;20105;-70
2022/08/25 10:35:21;;;;;;;8.35;2.75;;;;;;;31.88;36.35;101284.22;5217355;28;20048;-71
2022/08/25 10:38:07;;;;;;;9.90;2.77;;;;;;;31.78;34.75;101284.25;5223698;28;20084;-71
2022/08/25 10:40:46;;;;;;;5.03;2.67;;;;;;;31.41;33.71;101284.13;5223795;28;20371;-71
2022/08/25 10:43:34;;;;;;;4.78;3.10;;;;;;;31.50;35.01;101274.38;5222163;28;20021;-71
2022/08/25 10:46:23;;;;;;;5.78;2.47;;;;;;;31.42;35.05;101272.38;5223600;28;20372;-71
2022/08/25 10:49:03;;;;;;;5.43;2.90;;;;;;;31.25;36.88;101269.44;5205007;28;20058;-71
2022/08/25 10:51:47;;;;;;;5.10;2.80;;;;;;;31.57;33.58;101267.41;5223022;28;20030;-71
2022/08/25 10:54:44;;;;;;;6.93;2.50;;;;;;;31.64;34.38;101257.78;5205710;28;20036;-71
2022/08/25 10:58:03;;;;;;;8.63;3.65;;;;;;;31.78;36.49;101259.13;5222990;28;20030;-71
2022/08/25 11:00:44;;;;;;;9.63;3.00;;;;;;;32.07;37.40;101256.34;5223365;28;20410;-71
2022/08/25 11:03:22;;;;;;;5.90;2.90;;;;;;;32.42;35.19;101256.59;5222536;28;20029;-70
2022/08/25 11:06:13;;;;;;;9.07;3.25;;;;;;;33.01;31.03;101249.78;5205575;28;20439;-71
2022/08/25 11:08:59;;;;;;;8.63;2.97;;;;;;;33.12;29.20;101246.00;5222307;28;20029;-71
2022/08/25 11:11:36;;;;;;;6.68;2.78;;;;;;;34.01;30.02;101252.19;5222533;28;20037;-71
2022/08/25 11:14:23;;;;;;;4.50;2.53;;;;;;;34.62;30.04;101244.78;5222727;28;20045;-71
2022/08/25 11:17:01;;;;;;;5.68;2.85;;;;;;;35.42;28.56;101246.03;5222957;28;20025;-71
2022/08/25 11:19:37;;;;;;;7.15;3.85;;;;;;;35.90;30.16;101241.50;5222948;28;20029;-71
2022/08/25 11:22:20;;;;;;;6.70;2.95;;;;;;;36.10;26.68;101236.53;5222414;28;20119;-71
2022/08/25 11:24:52;;;;;;;6.53;2.72;;;;;;;36.52;25.19;101231.75;5222509;28;20095;-71
2022/08/25 11:27:35;;;;;;;4.97;2.63;;;;;;;36.67;26.91;101224.47;5222386;28;20455;-71
2022/08/25 11:30:10;;;;;;;10.68;3.40;;;;;;;36.42;26.30;101236.53;5222211;28;20062;-71
2022/08/25 11:32:47;;;;;;;6.00;2.90;;;;;;;36.47;26.87;101234.16;5222256;28;20165;-72
2022/08/25 11:35:26;;;;;;;10.57;2.95;;;;;;;36.46;27.70;101225.16;5222024;28;20036;-72
2022/08/25 11:38:07;;;;;;;5.65;3.03;;;;;;;36.11;25.67;101235.50;5222313;28;20061;-72
2022/08/25 11:41:05;;;;;;;5.53;3.25;;;;;;;36.19;26.94;101226.47;5221993;28;20038;-72
2022/08/25 11:44:26;;;;;;;8.35;3.20;;;;;;;36.67;27.32;101229.91;5221995;28;20030;-71
2022/08/25 11:47:03;;;;;;;7.95;3.60;;;;;;;36.27;25.92;101225.59;5174966;28;20048;-72
2022/08/25 11:50:06;;;;;;;6.60;3.30;;;;;;;36.60;25.70;101219.97;5221544;28;20053;-71
2022/08/25 11:52:45;;;;;;;10.50;4.55;;;;;;;36.85;23.71;101215.22;5221860;28;20087;-72
2022/08/25 11:55:19;;;;;;;8.25;4.05;;;;;;;36.81;24.81;101212.03;5221501;28;20502;-72
2022/08/25 11:58:12;;;;;;;13.70;3.70;;;;;;;37.15;26.55;101216.13;5221638;28;20029;-72
2022/08/25 12:00:43;;;;;;;8.30;4.03;;;;;;;37.88;27.39;101221.84;5221149;28;20032;-72
2022/08/25 12:03:33;;;;;;;6.10;3.20;;;;;;;38.48;25.43;101219.00;5221751;28;20030;-71
2022/08/25 12:06:42;;;;;;;8.48;3.85;;;;;;;38.55;24.92;101219.91;5221756;28;20085;-71
2022/08/25 12:09:18;;;;;;;6.93;3.58;;;;;;;38.30;23.65;101223.03;5219004;28;20066;-71
2022/08/25 12:11:56;;;;;;;7.03;3.78;;;;;;;38.65;22.88;101212.28;5221767;28;20026;-72